Time;durP1;ratioP1;P1;durP2;ratioP2;P2;SDS_P1;SDS_P2;PMS_P1;PMS_P2;Temp;Humidity;BMP_temperature;BMP_pressure;BME280_temperature;BME280_humidity;BME280_pressure;Samples;Min_cycle;Max_cycle;Signal;HPM_P1;HPM_P2
2022/07/16 00:02:25;;;;;;;;;;;24.60;87.70;;;;;;5094182;28;19915;-62
2022/07/16 00:04:50;;;;;;;;;;;24.60;87.70;;;;;;5094135;28;19995;-62
2022/07/16 00:07:16;;;;;;;;;;;24.60;87.80;;;;;;5094003;28;19947;-62
2022/07/16 00:09:41;;;;;;;;;;;24.60;87.80;;;;;;5093840;28;19935;-62
2022/07/16 00:12:07;;;;;;;;;;;24.60;87.80;;;;;;5076077;28;19950;-62
2022/07/16 00:14:33;;;;;;;;;;;24.60;87.90;;;;;;5094158;28;20049;-62
2022/07/16 00:16:58;;;;;;;;;;;24.60;87.90;;;;;;5093955;28;19915;-62
2022/07/16 00:19:24;;;;;;;;;;;24.60;87.90;;;;;;5094102;28;19909;-62
2022/07/16 00:21:50;;;;;;;;;;;24.60;88.00;;;;;;5094104;28;19912;-62
2022/07/16 00:24:16;;;;;;;;;;;24.60;88.00;;;;;;5093718;28;19909;-62
2022/07/16 00:26:43;;;;;;;;;;;24.60;88.10;;;;;;5093700;28;20006;-62
2022/07/16 00:29:08;;;;;;;;;;;24.60;88.10;;;;;;5093990;28;19912;-62
2022/07/16 00:31:35;;;;;;;;;;;24.60;88.10;;;;;;5075875;28;19918;-62
2022/07/16 00:34:01;;;;;;;;;;;24.60;88.10;;;;;;5075601;28;19909;-62
2022/07/16 00:36:26;;;;;;;;;;;24.60;88.20;;;;;;5093781;28;20394;-62
2022/07/16 00:38:52;;;;;;;;;;;24.60;88.20;;;;;;5096773;28;19939;-62
2022/07/16 00:41:17;;;;;;;;;;;24.60;88.20;;;;;;5097817;28;19908;-62
2022/07/16 00:43:47;;;;;;;;;;;24.60;88.20;;;;;;5079859;28;19919;-62
2022/07/16 00:46:13;;;;;;;;;;;24.60;88.20;;;;;;5097922;28;20003;-62
2022/07/16 00:48:39;;;;;;;;;;;24.60;88.30;;;;;;5097801;28;19916;-62
2022/07/16 00:51:06;;;;;;;;;;;24.60;88.20;;;;;;5097876;28;19912;-62
2022/07/16 00:53:32;;;;;;;;;;;24.60;88.30;;;;;;5097774;28;20369;-62
2022/07/16 00:55:57;;;;;;;;;;;24.60;88.30;;;;;;5097242;28;19915;-62
2022/07/16 00:58:23;;;;;;;;;;;24.60;88.30;;;;;;5097432;28;19920;-62
2022/07/16 01:00:48;;;;;;;;;;;24.50;88.30;;;;;;5097298;28;19916;-62
2022/07/16 01:03:14;;;;;;;;;;;24.60;88.30;;;;;;5097146;28;19944;-62
2022/07/16 01:05:39;;;;;;;;;;;24.60;88.40;;;;;;5097359;28;19912;-62
2022/07/16 01:08:05;;;;;;;;;;;24.60;88.40;;;;;;5097460;28;19937;-62
2022/07/16 01:10:31;;;;;;;;;;;24.60;88.40;;;;;;5097752;28;19919;-62
2022/07/16 01:12:58;;;;;;;;;;;24.50;88.30;;;;;;5097009;28;19914;-62
2022/07/16 01:15:23;;;;;;;;;;;24.50;88.40;;;;;;5097292;28;19909;-62
2022/07/16 01:17:49;;;;;;;;;;;24.50;88.40;;;;;;5097286;28;19911;-62
2022/07/16 01:20:14;;;;;;;;;;;24.50;88.40;;;;;;5097058;28;19908;-62
2022/07/16 01:22:40;;;;;;;;;;;24.50;88.40;;;;;;5097246;28;19915;-62
2022/07/16 01:25:07;;;;;;;;;;;24.60;88.50;;;;;;5078989;28;20024;-62
2022/07/16 01:27:32;;;;;;;;;;;24.50;88.50;;;;;;5096761;28;19988;-62
2022/07/16 01:29:58;;;;;;;;;;;24.50;88.50;;;;;;5078939;28;19958;-62
2022/07/16 01:32:23;;;;;;;;;;;24.50;88.50;;;;;;5096678;28;20363;-62
2022/07/16 01:34:49;;;;;;;;;;;24.60;88.60;;;;;;5097010;28;19912;-62
2022/07/16 01:37:15;;;;;;;;;;;24.50;88.50;;;;;;5078811;28;20408;-62
2022/07/16 01:39:42;;;;;;;;;;;24.50;88.50;;;;;;5096872;28;19916;-62
2022/07/16 01:42:08;;;;;;;;;;;24.50;89.10;;;;;;5096928;28;20270;-62
2022/07/16 01:44:35;;;;;;;;;;;24.50;88.50;;;;;;5096632;28;20441;-62
2022/07/16 01:47:01;;;;;;;;;;;24.50;88.60;;;;;;5096878;28;19951;-62
2022/07/16 01:49:30;;;;;;;;;;;24.50;88.60;;;;;;5077805;28;19912;-62
2022/07/16 01:51:56;;;;;;;;;;;24.50;88.60;;;;;;5096649;28;19912;-62
2022/07/16 01:54:21;;;;;;;;;;;24.50;88.60;;;;;;5078586;28;19931;-62
2022/07/16 01:56:46;;;;;;;;;;;24.50;88.50;;;;;;5096484;28;19915;-62
2022/07/16 01:59:12;;;;;;;;;;;24.50;88.50;;;;;;5096072;28;20354;-62
2022/07/16 02:01:37;;;;;;;;;;;24.50;88.60;;;;;;5096440;28;19936;-62
2022/07/16 02:04:03;;;;;;;;;;;24.50;88.50;;;;;;5096371;28;20331;-62
2022/07/16 02:06:28;;;;;;;;;;;24.50;88.60;;;;;;5077996;28;19919;-62
2022/07/16 02:08:54;;;;;;;;;;;24.50;88.60;;;;;;5078123;28;19959;-62
2022/07/16 02:11:20;;;;;;;;;;;24.50;88.60;;;;;;5096291;28;19999;-62
2022/07/16 02:13:45;;;;;;;;;;;24.50;88.60;;;;;;5096578;28;19916;-62
2022/07/16 02:16:11;;;;;;;;;;;24.50;88.60;;;;;;5096044;28;19908;-62
2022/07/16 02:18:37;;;;;;;;;;;24.50;88.60;;;;;;5096117;28;19908;-62
2022/07/16 02:21:03;;;;;;;;;;;24.50;88.60;;;;;;5095756;28;19915;-62
2022/07/16 02:23:28;;;;;;;;;;;24.50;88.60;;;;;;5096024;28;19908;-63
2022/07/16 02:25:54;;;;;;;;;;;24.50;88.60;;;;;;5095850;28;19916;-62
2022/07/16 02:28:19;;;;;;;;;;;24.50;88.60;;;;;;5095595;28;20389;-62
2022/07/16 02:30:46;;;;;;;;;;;24.50;88.70;;;;;;5095749;28;19994;-62
2022/07/16 02:33:12;;;;;;;;;;;24.50;88.70;;;;;;5095589;28;19908;-62
2022/07/16 02:35:38;;;;;;;;;;;24.40;88.60;;;;;;5095834;28;19951;-62
2022/07/16 02:38:04;;;;;;;;;;;24.50;88.70;;;;;;5095751;28;20394;-62
2022/07/16 02:40:32;;;;;;;;;;;24.50;88.70;;;;;;5095404;28;19908;-62
2022/07/16 02:42:58;;;;;;;;;;;24.50;88.70;;;;;;5095557;28;19908;-62
2022/07/16 02:45:23;;;;;;;;;;;24.50;88.70;;;;;;5095362;28;19915;-62
2022/07/16 02:47:49;;;;;;;;;;;24.40;88.70;;;;;;5095514;28;19912;-62
2022/07/16 02:50:14;;;;;;;;;;;24.40;88.70;;;;;;5095139;28;19919;-62
2022/07/16 02:52:40;;;;;;;;;;;24.50;88.80;;;;;;5095145;28;19908;-62
2022/07/16 02:55:05;;;;;;;;;;;24.50;88.80;;;;;;5095410;28;19908;-62
2022/07/16 02:57:31;;;;;;;;;;;24.50;88.80;;;;;;5095089;28;19908;-62
2022/07/16 02:59:56;;;;;;;;;;;24.40;88.70;;;;;;5095494;28;20012;-62
2022/07/16 03:02:22;;;;;;;;;;;24.50;88.80;;;;;;5094571;28;19915;-62
2022/07/16 03:04:47;;;;;;;;;;;24.50;88.80;;;;;;5095207;28;19995;-62
2022/07/16 03:07:13;;;;;;;;;;;24.50;89.30;;;;;;5094845;28;19908;-62
2022/07/16 03:09:38;;;;;;;;;;;24.40;88.70;;;;;;5095031;28;20011;-62
2022/07/16 03:12:04;;;;;;;;;;;24.40;88.80;;;;;;5094826;28;19912;-62
2022/07/16 03:14:30;;;;;;;;;;;24.50;88.80;;;;;;5094625;28;19908;-62
2022/07/16 03:16:55;;;;;;;;;;;24.40;88.80;;;;;;5095102;28;20007;-62
2022/07/16 03:19:21;;;;;;;;;;;24.40;88.80;;;;;;5095034;28;19954;-62
2022/07/16 03:21:46;;;;;;;;;;;24.40;88.80;;;;;;5094920;28;19908;-62
2022/07/16 03:24:12;;;;;;;;;;;24.40;88.80;;;;;;5094569;28;19947;-62
2022/07/16 03:26:37;;;;;;;;;;;24.40;88.80;;;;;;5094833;28;20358;-62
2022/07/16 03:29:03;;;;;;;;;;;24.40;88.90;;;;;;5094433;28;19999;-62
2022/07/16 03:31:28;;;;;;;;;;;24.40;88.90;;;;;;5076290;28;19912;-62
2022/07/16 03:33:54;;;;;;;;;;;24.40;88.90;;;;;;5076601;28;19971;-62
2022/07/16 03:36:20;;;;;;;;;;;24.40;88.90;;;;;;5094413;28;19951;-62
2022/07/16 03:39:00;;;;;;;;;;;24.40;88.90;;;;;;5094732;28;19914;-62
2022/07/16 03:41:25;;;;;;;;;;;24.40;88.90;;;;;;5094501;28;19915;-62
2022/07/16 03:43:51;;;;;;;;;;;24.40;88.90;;;;;;5094652;28;19908;-62
2022/07/16 03:46:17;;;;;;;;;;;24.40;88.90;;;;;;5094611;28;19908;-62
2022/07/16 03:48:42;;;;;;;;;;;24.40;88.90;;;;;;5094407;28;20370;-62
2022/07/16 03:51:08;;;;;;;;;;;24.40;89.00;;;;;;5094153;28;19912;-61
2022/07/16 03:53:34;;;;;;;;;;;24.40;89.00;;;;;;5094502;28;19908;-61
2022/07/16 03:56:00;;;;;;;;;;;24.40;89.00;;;;;;5094145;28;19908;-62
2022/07/16 03:58:28;;;;;;;;;;;24.40;89.00;;;;;;5093978;28;19970;-62
2022/07/16 04:00:53;;;;;;;;;;;24.40;88.90;;;;;;5076273;28;19908;-62
2022/07/16 04:03:19;;;;;;;;;;;24.40;89.00;;;;;;5094339;28;19934;-62
2022/07/16 04:05:45;;;;;;;;;;;24.40;89.00;;;;;;5093866;28;20008;-62
2022/07/16 04:08:10;;;;;;;;;;;24.40;88.90;;;;;;5093959;28;19912;-63
2022/07/16 04:10:36;;;;;;;;;;;24.40;88.90;;;;;;5093894;28;20003;-63
2022/07/16 04:13:02;;;;;;;;;;;24.40;88.80;;;;;;5096992;28;19908;-62
2022/07/16 04:15:27;;;;;;;;;;;24.50;88.90;;;;;;5100608;28;19908;-62
2022/07/16 04:17:53;;;;;;;;;;;24.40;88.80;;;;;;5100699;28;20373;-62
2022/07/16 04:20:18;;;;;;;;;;;24.50;89.00;;;;;;5100986;28;19912;-62
2022/07/16 04:22:44;;;;;;;;;;;24.50;89.00;;;;;;5100960;28;19908;-62
2022/07/16 04:25:09;;;;;;;;;;;24.50;88.90;;;;;;5100957;28;20328;-62
2022/07/16 04:27:35;;;;;;;;;;;24.50;89.00;;;;;;5100913;28;19916;-62
2022/07/16 04:30:00;;;;;;;;;;;24.50;89.00;;;;;;5100703;28;19912;-62
2022/07/16 04:32:26;;;;;;;;;;;24.50;88.90;;;;;;5100925;28;19938;-62
2022/07/16 04:34:51;;;;;;;;;;;24.50;89.00;;;;;;5100326;28;20343;-62
2022/07/16 04:37:17;;;;;;;;;;;24.50;88.90;;;;;;5088002;28;19908;-62
2022/07/16 04:39:42;;;;;;;;;;;24.50;88.90;;;;;;5117320;28;19972;-62
2022/07/16 04:42:08;;;;;;;;;;;24.50;89.00;;;;;;5115941;28;19966;-62
2022/07/16 04:44:33;;;;;;;;;;;24.50;89.10;;;;;;5082520;28;20346;-62
2022/07/16 04:46:59;;;;;;;;;;;24.50;89.10;;;;;;5100629;28;19919;-62
2022/07/16 04:49:24;;;;;;;;;;;24.50;89.00;;;;;;5100179;28;19974;-62
2022/07/16 04:51:49;;;;;;;;;;;24.50;89.10;;;;;;5105079;28;19919;-62
2022/07/16 04:54:15;;;;;;;;;;;24.50;89.00;;;;;;5101941;28;20259;-63
2022/07/16 04:56:40;;;;;;;;;;;24.50;89.00;;;;;;5119884;28;19916;-62
2022/07/16 04:59:06;;;;;;;;;;;24.60;89.10;;;;;;5101931;28;20286;-62
2022/07/16 05:01:32;;;;;;;;;;;24.60;89.10;;;;;;5100618;28;19930;-62
2022/07/16 05:03:57;;;;;;;;;;;24.60;89.00;;;;;;5098860;28;20389;-62
2022/07/16 05:06:23;;;;;;;;;;;24.60;89.00;;;;;;5098741;28;19959;-62
2022/07/16 05:08:49;;;;;;;;;;;24.60;89.00;;;;;;5098752;28;19962;-62
2022/07/16 05:11:14;;;;;;;;;;;24.60;89.00;;;;;;5098500;28;19998;-62
2022/07/16 05:13:40;;;;;;;;;;;24.60;88.60;;;;;;5098792;28;19909;-62
2022/07/16 05:16:06;;;;;;;;;;;24.60;88.80;;;;;;5071368;28;20327;-62
2022/07/16 05:18:31;;;;;;;;;;;24.60;88.80;;;;;;5098984;28;19908;-62
2022/07/16 05:20:56;;;;;;;;;;;24.60;88.80;;;;;;5082107;28;19953;-62
2022/07/16 05:23:22;;;;;;;;;;;24.70;89.00;;;;;;5098545;28;20390;-62
2022/07/16 05:25:47;;;;;;;;;;;24.60;88.60;;;;;;5088590;28;20045;-62
2022/07/16 05:28:13;;;;;;;;;;;24.60;88.90;;;;;;5097970;28;20369;-62
2022/07/16 05:30:38;;;;;;;;;;;24.70;89.00;;;;;;5089539;28;19973;-62
2022/07/16 05:33:04;;;;;;;;;;;24.70;89.00;;;;;;5095461;28;19908;-62
2022/07/16 05:35:29;;;;;;;;;;;24.70;88.90;;;;;;5098264;28;19912;-62
2022/07/16 05:37:55;;;;;;;;;;;24.70;88.90;;;;;;5106968;28;19920;-62
2022/07/16 05:40:20;;;;;;;;;;;24.70;88.70;;;;;;5095092;28;19993;-62
2022/07/16 05:42:46;;;;;;;;;;;24.70;89.00;;;;;;5095412;28;19916;-62
2022/07/16 05:45:12;;;;;;;;;;;24.70;89.00;;;;;;5071791;28;19912;-62
2022/07/16 05:47:37;;;;;;;;;;;24.70;89.10;;;;;;5096880;28;20247;-62
2022/07/16 05:50:03;;;;;;;;;;;24.70;88.90;;;;;;5071741;28;20002;-62
2022/07/16 05:52:29;;;;;;;;;;;24.70;88.60;;;;;;5096918;28;19912;-62
2022/07/16 05:54:54;;;;;;;;;;;24.70;88.90;;;;;;5096134;28;19912;-65
2022/07/16 05:57:19;;;;;;;;;;;24.70;89.10;;;;;;5105539;28;19911;-60
2022/07/16 05:59:45;;;;;;;;;;;24.60;81.40;;;;;;5106246;28;19991;-60
2022/07/16 06:02:10;;;;;;;;;;;24.40;79.80;;;;;;5113874;28;20002;-62
2022/07/16 06:04:36;;;;;;;;;;;24.40;79.50;;;;;;5106616;28;19995;-62
2022/07/16 06:07:01;;;;;;;;;;;24.30;79.20;;;;;;5113145;28;19912;-63
2022/07/16 06:09:27;;;;;;;;;;;24.30;80.80;;;;;;5113348;28;19916;-63
2022/07/16 06:11:52;;;;;;;;;;;24.40;82.00;;;;;;5112625;28;20327;-62
2022/07/16 06:14:18;;;;;;;;;;;24.40;82.70;;;;;;5109401;28;19919;-63
2022/07/16 06:16:43;;;;;;;;;;;24.50;84.10;;;;;;5110173;28;21619;-62
2022/07/16 06:19:09;;;;;;;;;;;24.50;84.30;;;;;;5109404;28;20289;-63
2022/07/16 06:21:35;;;;;;;;;;;24.50;85.00;;;;;;5111878;28;19986;-62
2022/07/16 06:24:00;;;;;;;;;;;24.60;85.40;;;;;;5116088;28;20271;-62
2022/07/16 06:26:26;;;;;;;;;;;24.50;85.80;;;;;;5114427;28;19912;-62
2022/07/16 06:28:51;;;;;;;;;;;24.60;86.00;;;;;;5112732;28;19915;-62
2022/07/16 06:31:17;;;;;;;;;;;24.60;86.10;;;;;;5107538;28;19916;-62
2022/07/16 06:33:42;;;;;;;;;;;24.60;85.90;;;;;;5100311;28;19908;-63
2022/07/16 06:36:07;;;;;;;;;;;24.60;86.10;;;;;;5095190;28;19908;-62
2022/07/16 06:38:33;;;;;;;;;;;24.60;86.10;;;;;;5094122;28;19908;-63
2022/07/16 06:40:58;;;;;;;;;;;24.60;86.30;;;;;;5095219;28;20298;-62
2022/07/16 06:43:24;;;;;;;;;;;24.60;86.40;;;;;;5095080;28;19915;-62
2022/07/16 06:45:50;;;;;;;;;;;24.60;86.40;;;;;;5094911;28;19908;-62
2022/07/16 06:48:16;;;;;;;;;;;24.60;86.50;;;;;;5094997;28;20002;-62
2022/07/16 06:50:41;;;;;;;;;;;24.60;86.60;;;;;;5115572;28;20033;-62
2022/07/16 06:53:07;;;;;;;;;;;24.60;86.50;;;;;;5095244;28;19907;-63
2022/07/16 06:55:32;;;;;;;;;;;24.60;86.60;;;;;;5098937;28;19924;-61
2022/07/16 06:57:58;;;;;;;;;;;24.60;82.70;;;;;;5087989;28;20361;-61
2022/07/16 07:00:23;;;;;;;;;;;24.60;81.10;;;;;;5109518;28;19916;-62
2022/07/16 07:02:49;;;;;;;;;;;24.50;80.00;;;;;;5103427;28;19922;-62
2022/07/16 07:05:14;;;;;;;;;;;24.50;82.50;;;;;;5114933;28;19914;-63
2022/07/16 07:07:40;;;;;;;;;;;24.50;84.10;;;;;;5107756;28;19923;-60
2022/07/16 07:10:05;;;;;;;;;;;24.50;85.00;;;;;;5108413;28;20007;-61
2022/07/16 07:12:32;;;;;;;;;;;24.40;79.90;;;;;;5110582;28;19915;-60
2022/07/16 07:14:57;;;;;;;;;;;24.40;80.50;;;;;;5112846;28;19915;-63
2022/07/16 07:17:23;;;;;;;;;;;24.40;83.10;;;;;;5106932;28;19956;-63
2022/07/16 07:19:48;;;;;;;;;;;24.50;83.30;;;;;;5106471;28;19927;-63
2022/07/16 07:22:14;;;;;;;;;;;24.50;83.40;;;;;;5085091;28;19919;-63
2022/07/16 07:24:39;;;;;;;;;;;24.50;84.20;;;;;;5096941;28;20046;-63
2022/07/16 07:27:05;;;;;;;;;;;24.50;84.50;;;;;;5080540;28;19919;-63
2022/07/16 07:29:33;;;;;;;;;;;24.50;84.60;;;;;;5074146;28;20360;-63
2022/07/16 07:31:59;;;;;;;;;;;24.50;84.80;;;;;;5074272;28;20004;-63
2022/07/16 07:34:24;;;;;;;;;;;24.50;84.80;;;;;;5074101;28;19990;-63
2022/07/16 07:36:50;;;;;;;;;;;24.50;84.50;;;;;;5073701;28;20381;-63
2022/07/16 07:39:15;;;;;;;;;;;24.50;84.60;;;;;;5073927;28;19908;-63
2022/07/16 07:41:41;;;;;;;;;;;24.50;84.60;;;;;;5073539;28;19995;-63
2022/07/16 07:44:07;;;;;;;;;;;24.50;84.70;;;;;;5089781;28;19981;-63
2022/07/16 07:46:32;;;;;;;;;;;24.50;84.90;;;;;;5073909;28;19916;-63
2022/07/16 07:48:57;;;;;;;;;;;24.60;85.00;;;;;;5088644;28;20454;-63
2022/07/16 07:51:24;;;;;;;;;;;24.60;85.10;;;;;;5073658;28;19913;-63
2022/07/16 07:53:49;;;;;;;;;;;24.60;84.80;;;;;;5073599;28;19923;-63
2022/07/16 07:56:15;;;;;;;;;;;24.60;85.00;;;;;;5073201;28;19908;-63
2022/07/16 07:58:40;;;;;;;;;;;24.60;85.10;;;;;;5072881;28;19925;-63
2022/07/16 08:01:06;;;;;;;;;;;24.60;85.30;;;;;;5089325;28;19912;-63
2022/07/16 08:03:32;;;;;;;;;;;24.60;85.40;;;;;;5073282;28;19908;-63
2022/07/16 08:05:57;;;;;;;;;;;24.60;85.30;;;;;;5073515;28;19908;-63
2022/07/16 08:08:23;;;;;;;;;;;24.60;85.30;;;;;;5073603;28;19930;-63
2022/07/16 08:10:48;;;;;;;;;;;24.60;85.50;;;;;;5073383;28;19917;-63
2022/07/16 08:13:14;;;;;;;;;;;24.60;85.30;;;;;;5073293;28;20488;-63
2022/07/16 08:15:39;;;;;;;;;;;24.60;85.50;;;;;;5073475;28;20274;-63
2022/07/16 08:18:05;;;;;;;;;;;24.60;85.50;;;;;;5073369;28;19908;-63
2022/07/16 08:20:30;;;;;;;;;;;24.60;85.80;;;;;;5073619;28;19916;-63
2022/07/16 08:22:56;;;;;;;;;;;24.60;85.70;;;;;;5055594;28;19913;-63
2022/07/16 08:28:05;;;;;;;;;;;24.60;85.80;;;;;;5073226;28;19959;-63
2022/07/16 08:30:31;;;;;;;;;;;24.60;85.50;;;;;;5073406;28;20306;-63
2022/07/16 08:32:56;;;;;;;;;;;24.60;85.80;;;;;;5073126;28;19915;-63
2022/07/16 08:35:22;;;;;;;;;;;24.60;85.80;;;;;;5073553;28;20008;-63
2022/07/16 08:37:47;;;;;;;;;;;24.60;85.40;;;;;;5072987;28;19913;-63
2022/07/16 08:40:14;;;;;;;;;;;24.60;85.50;;;;;;5073550;28;19913;-63
2022/07/16 08:42:40;;;;;;;;;;;24.60;85.80;;;;;;5072888;28;20414;-63
2022/07/16 08:45:07;;;;;;;;;;;24.50;85.70;;;;;;5073266;28;20055;-63
2022/07/16 08:47:33;;;;;;;;;;;24.60;85.60;;;;;;5073044;28;19908;-63
2022/07/16 08:49:59;;;;;;;;;;;24.60;85.60;;;;;;5073217;28;20011;-63
2022/07/16 08:52:26;;;;;;;;;;;24.60;85.90;;;;;;5055060;28;20007;-62
2022/07/16 08:54:53;;;;;;;;;;;24.60;85.90;;;;;;5073022;28;19947;-62
2022/07/16 08:57:18;;;;;;;;;;;24.60;86.60;;;;;;5054786;28;19909;-62
2022/07/16 08:59:44;;;;;;;;;;;24.60;86.00;;;;;;5055467;28;19926;-63
2022/07/16 09:02:13;;;;;;;;;;;24.60;86.30;;;;;;5076775;28;19962;-62
2022/07/16 09:04:39;;;;;;;;;;;24.60;86.10;;;;;;5076221;28;19948;-62
2022/07/16 09:07:04;;;;;;;;;;;24.60;86.10;;;;;;5076540;28;19951;-62
2022/07/16 09:09:30;;;;;;;;;;;24.60;86.20;;;;;;5076498;28;19921;-63
2022/07/16 09:11:55;;;;;;;;;;;24.60;86.20;;;;;;5076828;28;20003;-63
2022/07/16 09:14:21;;;;;;;;;;;24.60;86.30;;;;;;5076362;28;19953;-63
2022/07/16 09:16:46;;;;;;;;;;;24.60;86.20;;;;;;5076337;28;19908;-63
2022/07/16 09:19:16;;;;;;;;;;;24.60;86.20;;;;;;5076596;28;19909;-63
2022/07/16 09:22:00;;;;;;;;;;;24.60;86.40;;;;;;5076239;28;20359;-63
2022/07/16 09:24:38;;;;;;;;;;;24.60;86.60;;;;;;5076893;28;19916;-63
2022/07/16 09:27:12;;;;;;;;;;;24.60;86.80;;;;;;5077017;28;19909;-64
2022/07/16 09:29:44;;;;;;;;;;;24.60;86.80;;;;;;5076454;28;19913;-63
2022/07/16 09:32:10;;;;;;;;;;;24.60;86.80;;;;;;5075786;28;19916;-63
2022/07/16 09:34:36;;;;;;;;;;;24.60;86.90;;;;;;5076302;28;19908;-63
2022/07/16 09:37:03;;;;;;;;;;;24.60;86.50;;;;;;5076137;28;19909;-63
2022/07/16 09:39:30;;;;;;;;;;;24.60;86.50;;;;;;5075887;28;19909;-63
2022/07/16 09:41:55;;;;;;;;;;;24.60;86.70;;;;;;5076075;28;20305;-63
2022/07/16 09:44:25;;;;;;;;;;;24.60;86.80;;;;;;5076201;28;19908;-63
2022/07/16 09:47:02;;;;;;;;;;;24.60;86.80;;;;;;5075661;28;19908;-63
2022/07/16 09:49:29;;;;;;;;;;;24.60;86.80;;;;;;5076117;28;19920;-63
2022/07/16 09:51:55;;;;;;;;;;;24.60;86.90;;;;;;5076165;28;19913;-63
2022/07/16 09:54:26;;;;;;;;;;;24.60;86.70;;;;;;5057967;28;20339;-63
2022/07/16 09:57:11;;;;;;;;;;;24.60;86.80;;;;;;5076180;28;19908;-63
2022/07/16 09:59:37;;;;;;;;;;;24.60;86.80;;;;;;5091463;28;20025;-64
2022/07/16 10:02:04;;;;;;;;;;;24.60;86.80;;;;;;5075270;28;20210;-63
2022/07/16 10:04:30;;;;;;;;;;;24.60;87.00;;;;;;5077830;28;20299;-63
2022/07/16 10:06:56;;;;;;;;;;;24.60;87.10;;;;;;5101797;28;19916;-63
2022/07/16 10:09:22;;;;;;;;;;;24.60;87.10;;;;;;5109347;28;19923;-63
2022/07/16 10:11:47;;;;;;;;;;;24.60;87.10;;;;;;5110076;28;19916;-63
2022/07/16 10:14:13;;;;;;;;;;;24.60;87.00;;;;;;5102947;28;19995;-63
2022/07/16 10:16:40;;;;;;;;;;;24.60;86.80;;;;;;5109113;28;19947;-63
2022/07/16 10:19:06;;;;;;;;;;;24.60;86.90;;;;;;5111832;28;19975;-63
2022/07/16 10:21:31;;;;;;;;;;;24.60;87.10;;;;;;5109479;28;19964;-63
2022/07/16 10:24:04;;;;;;;;;;;24.60;87.10;;;;;;5114714;28;19943;-62
2022/07/16 10:26:32;;;;;;;;;;;24.60;87.20;;;;;;5103693;28;19960;-63
2022/07/16 10:28:57;;;;;;;;;;;24.60;87.20;;;;;;5115132;28;20376;-62
2022/07/16 10:31:30;;;;;;;;;;;24.60;87.20;;;;;;5102895;28;19920;-63
2022/07/16 10:34:30;;;;;;;;;;;24.60;87.10;;;;;;5105041;28;20362;-63
2022/07/16 10:36:56;;;;;;;;;;;24.60;87.20;;;;;;5106270;28;19911;-63
2022/07/16 10:39:22;;;;;;;;;;;24.60;87.20;;;;;;5104033;28;19947;-63
2022/07/16 10:41:48;;;;;;;;;;;24.60;87.20;;;;;;5079920;28;20282;-63
2022/07/16 10:44:14;;;;;;;;;;;24.60;86.90;;;;;;5098686;28;19912;-63
2022/07/16 10:46:52;;;;;;;;;;;24.60;87.10;;;;;;5093423;28;20271;-63
2022/07/16 10:49:18;;;;;;;;;;;24.60;86.90;;;;;;5115055;28;19918;-64
2022/07/16 10:51:58;;;;;;;;;;;24.60;86.80;;;;;;5097202;28;19916;-63
2022/07/16 10:54:25;;;;;;;;;;;24.60;86.80;;;;;;5115359;28;19912;-63
2022/07/16 10:56:51;;;;;;;;;;;24.60;86.80;;;;;;5115423;28;20323;-64
2022/07/16 10:59:16;;;;;;;;;;;24.60;87.00;;;;;;5115099;28;20339;-64
2022/07/16 11:01:43;;;;;;;;;;;24.60;87.00;;;;;;5115332;28;19911;-63
2022/07/16 11:04:09;;;;;;;;;;;24.60;86.90;;;;;;5096592;28;20311;-62
2022/07/16 11:06:35;;;;;;;;;;;24.60;87.00;;;;;;5114648;28;19907;-63
2022/07/16 11:09:03;;;;;;;;;;;24.60;87.00;;;;;;5115021;28;19912;-63
2022/07/16 11:11:38;;;;;;;;;;;24.60;87.10;;;;;;5115026;28;19952;-63
2022/07/16 11:14:04;;;;;;;;;;;24.60;87.10;;;;;;5115389;28;19915;-63
2022/07/16 11:16:30;;;;;;;;;;;24.60;87.20;;;;;;5114881;28;19912;-63
2022/07/16 11:18:58;;;;;;;;;;;24.60;87.20;;;;;;5114840;28;19908;-63
2022/07/16 11:21:23;;;;;;;;;;;24.60;87.30;;;;;;5114489;28;20282;-63
2022/07/16 11:23:56;;;;;;;;;;;24.60;87.20;;;;;;5113768;28;19911;-63
2022/07/16 11:26:22;;;;;;;;;;;24.60;87.20;;;;;;5114468;28;20350;-63
2022/07/16 11:28:55;;;;;;;;;;;24.60;87.40;;;;;;5114494;28;19912;-63
2022/07/16 11:31:24;;;;;;;;;;;24.60;87.30;;;;;;5096348;28;19912;-63
2022/07/16 11:33:51;;;;;;;;;;;24.60;87.00;;;;;;5114623;28;20052;-63
2022/07/16 11:36:16;;;;;;;;;;;24.60;87.00;;;;;;5114719;28;19915;-63
2022/07/16 11:38:42;;;;;;;;;;;24.60;87.10;;;;;;5114537;28;19908;-63
2022/07/16 11:41:08;;;;;;;;;;;24.60;87.20;;;;;;5076034;28;19991;-63
2022/07/16 11:43:33;;;;;;;;;;;24.60;87.20;;;;;;5091665;28;19965;-63
2022/07/16 11:45:59;;;;;;;;;;;24.60;87.20;;;;;;5105511;28;19920;-61
2022/07/16 11:48:33;;;;;;;;;;;24.60;87.20;;;;;;5108041;28;19951;-61
2022/07/16 11:51:04;;;;;;;;;;;24.60;87.10;;;;;;5093312;28;19911;-62
2022/07/16 11:53:33;;;;;;;;;;;24.60;87.10;;;;;;5100280;28;19994;-62
2022/07/16 11:55:59;;;;;;;;;;;24.60;86.40;;;;;;5081514;28;20017;-63
2022/07/16 11:58:25;;;;;;;;;;;24.70;86.70;;;;;;5111274;28;19972;-61
2022/07/16 12:00:50;;;;;;;;;;;24.60;86.90;;;;;;5109078;28;19912;-61
2022/07/16 12:03:16;;;;;;;;;;;24.60;87.00;;;;;;5093671;28;20355;-63
2022/07/16 12:05:42;;;;;;;;;;;24.60;87.00;;;;;;5093451;28;19916;-62
2022/07/16 12:08:08;;;;;;;;;;;24.70;87.20;;;;;;5093540;28;19909;-63
2022/07/16 12:10:34;;;;;;;;;;;24.60;87.40;;;;;;5093603;28;19923;-62
2022/07/16 12:13:07;;;;;;;;;;;24.70;87.50;;;;;;5098094;28;20339;-63
2022/07/16 12:15:52;;;;;;;;;;;24.60;87.60;;;;;;5114080;28;19912;-62
2022/07/16 12:18:18;;;;;;;;;;;24.70;87.80;;;;;;5113785;28;19952;-62
2022/07/16 12:20:44;;;;;;;;;;;24.70;87.90;;;;;;5114023;28;20278;-62
2022/07/16 12:23:14;;;;;;;;;;;24.70;87.90;;;;;;5084319;28;19912;-62
2022/07/16 12:25:41;;;;;;;;;;;24.70;87.90;;;;;;5094765;28;19915;-62
2022/07/16 12:28:07;;;;;;;;;;;24.70;88.00;;;;;;5110809;28;19919;-62
2022/07/16 12:30:35;;;;;;;;;;;24.70;88.00;;;;;;5111823;28;20002;-62
2022/07/16 12:33:02;;;;;;;;;;;24.70;88.00;;;;;;5109398;28;19911;-62
2022/07/16 12:35:38;;;;;;;;;;;24.70;88.10;;;;;;5110789;28;19919;-62
2022/07/16 12:38:03;;;;;;;;;;;24.70;88.10;;;;;;5097754;28;19916;-62
2022/07/16 12:40:29;;;;;;;;;;;24.70;88.10;;;;;;5076996;28;19916;-63
2022/07/16 12:42:54;;;;;;;;;;;24.70;88.10;;;;;;5097402;28;19919;-62
2022/07/16 12:45:20;;;;;;;;;;;24.70;88.20;;;;;;5094928;28;19908;-62
2022/07/16 12:47:45;;;;;;;;;;;24.70;88.20;;;;;;5116011;28;19947;-62
2022/07/16 12:50:11;;;;;;;;;;;24.70;88.20;;;;;;5110182;28;19924;-62
2022/07/16 12:52:36;;;;;;;;;;;24.70;88.30;;;;;;5116918;28;19915;-62
2022/07/16 13:00:33;;;;;;;;;;;24.70;88.30;;;;;;5115095;28;19980;-62
2022/07/16 13:02:58;;;;;;;;;;;24.70;88.30;;;;;;5114136;28;19966;-63
2022/07/16 13:05:25;;;;;;;;;;;24.70;88.20;;;;;;5113959;28;19912;-62
2022/07/16 13:07:50;;;;;;;;;;;24.70;88.20;;;;;;5109945;28;19918;-60
2022/07/16 13:10:16;;;;;;;;;;;24.70;88.20;;;;;;5117567;28;20257;-62
2022/07/16 13:12:41;;;;;;;;;;;24.70;88.10;;;;;;5097143;28;19916;-61
2022/07/16 13:15:07;;;;;;;;;;;24.70;88.10;;;;;;5113357;28;19911;-61
2022/07/16 13:17:32;;;;;;;;;;;24.70;88.20;;;;;;5104743;28;19960;-59
2022/07/16 13:19:58;;;;;;;;;;;24.70;88.20;;;;;;5108210;28;19954;-61
2022/07/16 13:22:24;;;;;;;;;;;24.70;88.00;;;;;;5100889;28;20270;-61
2022/07/16 13:24:49;;;;;;;;;;;24.70;87.80;;;;;;5094769;28;19919;-61
2022/07/16 13:27:15;;;;;;;;;;;24.70;87.60;;;;;;5095914;28;19908;-62
2022/07/16 13:29:41;;;;;;;;;;;24.70;87.80;;;;;;5089526;28;20321;-62
2022/07/16 13:32:06;;;;;;;;;;;24.70;87.80;;;;;;5098691;28;19998;-62
2022/07/16 13:34:32;;;;;;;;;;;24.70;87.80;;;;;;5097910;28;19994;-61
2022/07/16 13:36:57;;;;;;;;;;;24.70;87.90;;;;;;5098817;28;19915;-62
2022/07/16 13:39:22;;;;;;;;;;;24.70;88.00;;;;;;5095054;28;19990;-62
2022/07/16 13:41:48;;;;;;;;;;;24.70;87.90;;;;;;5078067;28;19908;-62
2022/07/16 13:44:13;;;;;;;;;;;24.70;88.00;;;;;;5075911;28;19920;-62
2022/07/16 13:46:40;;;;;;;;;;;24.70;88.10;;;;;;5090058;28;19915;-61
2022/07/16 13:49:05;;;;;;;;;;;24.70;88.10;;;;;;5103349;28;19912;-63
2022/07/16 13:51:30;;;;;;;;;;;24.70;88.10;;;;;;5096206;28;20006;-62
2022/07/16 13:53:56;;;;;;;;;;;24.70;88.10;;;;;;5095941;28;19914;-63
2022/07/16 13:56:21;;;;;;;;;;;24.70;88.20;;;;;;5095981;28;20354;-62
2022/07/16 13:58:47;;;;;;;;;;;24.70;88.20;;;;;;5096205;28;19924;-61
2022/07/16 14:01:15;;;;;;;;;;;24.70;88.20;;;;;;5096080;28;19908;-62
2022/07/16 14:03:41;;;;;;;;;;;24.70;88.30;;;;;;5104717;28;19939;-62
2022/07/16 14:06:08;;;;;;;;;;;24.70;88.30;;;;;;5094063;28;20058;-62
2022/07/16 14:08:33;;;;;;;;;;;24.70;88.30;;;;;;5091851;28;20864;-62
2022/07/16 14:10:59;;;;;;;;;;;24.70;88.30;;;;;;5093577;28;19916;-62
2022/07/16 14:13:25;;;;;;;;;;;24.70;88.30;;;;;;5094337;28;20248;-62
2022/07/16 14:15:51;;;;;;;;;;;24.70;88.30;;;;;;5096945;28;20041;-63
2022/07/16 14:18:16;;;;;;;;;;;24.70;88.30;;;;;;5096172;28;20358;-62
2022/07/16 14:20:42;;;;;;;;;;;24.70;88.40;;;;;;5112645;28;19911;-62